Time;durP1;ratioP1;P1;durP2;ratioP2;P2;SDS_P1;SDS_P2;PMS_P1;PMS_P2;Temp;Humidity;BMP_temperature;BMP_pressure;BME280_temperature;BME280_humidity;BME280_pressure;Samples;Min_cycle;Max_cycle;Signal;HPM_P1;HPM_P2
2023/02/03 00:01:31;;;;;;;;;;;;;;;-142.75;100.00;78137.50;4975926;28;20030;-68
2023/02/03 00:03:57;;;;;;;21.15;2.33;;;;;;;-142.75;100.00;78153.25;4990138;28;19910;-67
2023/02/03 00:06:22;;;;;;;;;;;;;;;-142.75;100.00;78159.16;4991694;28;20214;-65
2023/02/03 00:08:48;;;;;;;11.95;1.70;;;;;;;-142.75;100.00;78172.94;4991279;28;20264;-66
2023/02/03 00:11:13;;;;;;;;;;;;;;;-142.75;100.00;78170.97;4991321;28;20489;-64
2023/02/03 00:13:38;;;;;;;10.63;1.98;;;;;;;-142.75;100.00;78178.84;4991116;28;20404;-71
2023/02/03 00:16:05;;;;;;;;;;;;;;;-142.75;100.00;78153.25;4990250;28;20482;-68
2023/02/03 00:18:31;;;;;;;7.70;1.63;;;;;;;-142.75;100.00;78165.06;4982553;28;20025;-68
2023/02/03 00:20:57;;;;;;;8.23;1.63;;;;;;;-142.75;100.00;78165.06;4983821;28;20030;-68
2023/02/03 00:23:22;;;;;;;;;;;;;;;-142.75;100.00;78139.47;4978868;28;20490;-68
2023/02/03 00:25:48;;;;;;;10.85;2.47;;;;;;;-142.75;100.00;78159.16;4987693;28;19952;-68
2023/02/03 00:28:13;;;;;;;;;;;;;;;-142.75;100.00;78153.25;4991401;28;20054;-70
2023/02/03 00:30:39;;;;;;;14.07;1.88;;;;;;;-142.75;100.00;78186.75;4991052;28;19909;-68
2023/02/03 00:33:04;;;;;;;;;;;;;;;-142.75;100.00;78172.94;4979890;28;20077;-72
2023/02/03 00:35:30;;;;;;;7.78;1.58;;;;;;;-142.75;100.00;78196.59;4993705;28;20284;-67
2023/02/03 00:37:56;;;;;;;;;;;;;;;-142.75;100.00;78192.66;4995118;28;20472;-67
2023/02/03 00:40:24;;;;;;;11.70;2.00;;;;;;;-142.75;100.00;78198.56;4994577;28;19916;-67
2023/02/03 00:42:49;;;;;;;11.25;2.25;;;;;;;-142.75;100.00;78186.75;4993465;28;20397;-67
2023/02/03 00:45:15;;;;;;;;;;;;;;;-142.75;100.00;78180.81;4980538;28;20045;-67
2023/02/03 00:47:40;;;;;;;8.30;1.90;;;;;;;-142.75;100.00;78184.78;4994399;28;19909;-67
2023/02/03 00:50:06;;;;;;;;;;;;;;;-142.75;100.00;78180.81;4991420;28;20018;-67
2023/02/03 00:52:31;;;;;;;8.23;1.77;;;;;;;-142.75;100.00;78172.94;4992802;28;20296;-67
2023/02/03 00:54:57;;;;;;;;;;;;;;;-142.75;100.00;78176.88;4991216;28;20033;-67
2023/02/03 00:57:22;;;;;;;12.65;1.83;;;;;;;-142.75;100.00;78184.78;4992492;28;19926;-66
2023/02/03 00:59:47;;;;;;;;;;;;;;;-142.75;100.00;78149.31;4994839;28;20022;-68
2023/02/03 01:02:13;;;;;;;10.00;1.38;;;;;;;-142.75;100.00;78174.91;4989075;28;19992;-67
2023/02/03 01:04:38;;;;;;;;;;;;;;;-142.75;100.00;78165.06;4994463;28;20181;-67
2023/02/03 01:07:03;;;;;;;6.25;2.05;;;;;;;-142.75;100.00;78170.97;4988891;28;19936;-67
2023/02/03 01:09:32;;;;;;;;;;;;;;;-142.75;100.00;78159.16;4993204;28;20022;-67
2023/02/03 01:11:57;;;;;;;7.90;1.60;;;;;;;-142.75;100.00;78161.13;4994208;28;19917;-68
2023/02/03 01:14:22;;;;;;;;;;;;;;;-142.75;100.00;78155.22;4994279;28;20026;-70
2023/02/03 01:16:48;;;;;;;9.90;1.48;;;;;;;-142.75;100.00;78180.81;4994199;28;19969;-67
2023/02/03 01:19:13;;;;;;;;;;;;;;;-142.75;100.00;78149.31;4989228;28;20025;-69
2023/02/03 01:21:42;;;;;;;5.95;1.10;;;;;;;-142.75;100.00;78169.00;4996831;28;19909;-69
2023/02/03 01:24:13;;;;;;;7.57;1.48;;;;;;;-142.75;100.00;78147.34;4982085;28;20026;-67
2023/02/03 01:26:39;;;;;;;14.15;1.80;;;;;;;-142.75;100.00;78169.00;4988639;28;20018;-67
2023/02/03 01:29:04;;;;;;;;;;;;;;;-142.75;100.00;78161.13;4994332;28;20032;-67
2023/02/03 01:31:38;;;;;;;9.90;1.50;;;;;;;-142.75;100.00;78172.94;4993737;28;20000;-67
2023/02/03 01:34:05;;;;;;;10.73;1.83;;;;;;;-142.75;100.00;78165.06;4994162;28;20029;-67
2023/02/03 01:36:33;;;;;;;6.07;1.75;;;;;;;-142.75;100.00;78155.22;4994587;28;20023;-67
2023/02/03 01:38:58;;;;;;;7.60;2.97;;;;;;;-142.75;100.00;78121.75;4992467;28;20030;-67
2023/02/03 01:41:26;;;;;;;;;;;;;;;-142.75;100.00;78121.75;4993885;28;20036;-68
2023/02/03 01:43:54;;;;;;;9.18;1.90;;;;;;;-142.75;100.00;78121.75;4992534;28;19909;-67
2023/02/03 01:46:47;;;;;;;7.65;1.05;;;;;;;-142.75;100.00;78133.56;4992697;28;20024;-66
2023/02/03 01:49:21;;;;;;;10.45;1.60;;;;;;;-142.75;100.00;78145.38;4990779;28;20058;-67
2023/02/03 01:51:48;;;;;;;6.95;1.98;;;;;;;-142.75;100.00;78153.25;4989274;28;20054;-67
2023/02/03 01:54:21;;;;;;;9.98;1.48;;;;;;;-142.75;100.00;78151.28;4986827;28;20027;-67
2023/02/03 01:56:53;;;;;;;10.30;1.60;;;;;;;-142.75;100.00;78159.16;4984209;28;20023;-67
2023/02/03 01:59:20;;;;;;;8.98;1.10;;;;;;;-142.75;100.00;78145.38;4975273;28;20057;-67
2023/02/03 02:01:46;;;;;;;4.00;1.08;;;;;;;-142.75;100.00;78167.03;4973790;28;20023;-67
2023/02/03 02:04:11;;;;;;;;;;;;;;;-142.75;100.00;78145.38;4992967;28;20026;-67
2023/02/03 02:06:37;;;;;;;10.93;1.80;;;;;;;-142.75;100.00;78157.19;4990884;28;19960;-66
2023/02/03 02:09:02;;;;;;;;;;;;;;;-142.75;100.00;78151.28;4987009;28;20027;-67
2023/02/03 02:11:28;;;;;;;8.95;1.30;;;;;;;-142.75;100.00;78135.53;4987473;28;19914;-66
2023/02/03 02:13:56;;;;;;;;;;;;;;;-142.75;100.00;78129.63;4975795;28;20018;-67
2023/02/03 02:16:45;;;;;;;4.22;1.05;;;;;;;-142.75;100.00;78131.59;4988841;28;19920;-64
2023/02/03 02:19:43;;;;;;;7.18;1.80;;;;;;;-142.75;100.00;78129.63;4975223;28;20482;-70
2023/02/03 02:22:20;;;;;;;12.15;2.00;;;;;;;-142.75;100.00;78119.78;4920845;28;20046;-71
2023/02/03 02:25:03;;;;;;;7.93;1.60;;;;;;;-142.75;100.00;78111.91;4982629;28;20109;-71
2023/02/03 02:27:50;;;;;;;8.23;1.50;;;;;;;-142.75;100.00;78127.66;4977865;28;20101;-64
2023/02/03 02:30:35;;;;;;;;;;;;;;;-142.75;100.00;78133.56;4994071;28;20014;-67
2023/02/03 02:33:14;;;;;;;9.05;1.80;;;;;;;-142.75;100.00;78137.50;4992758;28;19947;-66
2023/02/03 02:36:15;;;;;;;4.00;1.13;;;;;;;-142.75;100.00;78117.81;4978373;28;20061;-67
2023/02/03 02:38:48;;;;;;;9.63;1.80;;;;;;;-142.75;100.00;78125.69;4962430;28;20056;-66
2023/02/03 02:41:28;;;;;;;11.60;2.17;;;;;;;-142.75;100.00;78123.72;4992365;28;20584;-67
2023/02/03 02:44:06;;;;;;;12.05;1.70;;;;;;;-142.75;100.00;78121.75;4991602;28;20022;-67
2023/02/03 02:46:38;;;;;;;7.78;1.80;;;;;;;-142.75;100.00;78129.63;4973235;28;20455;-67
2023/02/03 02:49:25;;;;;;;10.75;1.70;;;;;;;-142.75;100.00;78137.50;4975755;28;20027;-67
2023/02/03 02:51:52;;;;;;;7.32;1.75;;;;;;;-142.75;100.00;78129.63;4982391;28;20029;-67
2023/02/03 02:54:22;;;;;;;9.63;1.60;;;;;;;-142.75;100.00;78113.88;4972872;28;20383;-67
2023/02/03 02:56:52;;;;;;;6.50;1.73;;;;;;;-142.75;100.00;78125.69;4992205;28;20474;-67
2023/02/03 02:59:17;;;;;;;6.05;1.80;;;;;;;-142.75;100.00;78123.72;4992025;28;20053;-66
2023/02/03 03:01:43;;;;;;;;;;;;;;;-142.75;100.00;78117.81;4979596;28;20526;-66
2023/02/03 03:04:13;;;;;;;5.68;1.00;;;;;;;-142.75;100.00;78119.78;4989340;28;20281;-70
2023/02/03 03:06:53;;;;;;;9.68;1.40;;;;;;;-142.75;100.00;78121.75;4990823;28;20007;-70
2023/02/03 03:09:26;;;;;;;7.97;1.30;;;;;;;-142.75;100.00;78109.94;4980832;28;20030;-72
2023/02/03 03:12:07;;;;;;;7.80;1.48;;;;;;;-142.75;100.00;78098.13;4976643;28;20370;-68
2023/02/03 03:14:35;;;;;;;7.85;1.50;;;;;;;-142.75;100.00;78086.31;4974552;28;20390;-69
2023/02/03 03:17:04;;;;;;;7.93;1.60;;;;;;;-142.75;100.00;78088.28;4973057;28;20029;-67
2023/02/03 03:19:38;;;;;;;5.68;1.65;;;;;;;-142.75;100.00;78094.19;4974658;28;20052;-67
2023/02/03 03:22:06;;;;;;;6.47;1.38;;;;;;;-142.75;100.00;78090.25;4990670;28;20022;-67
2023/02/03 03:24:40;;;;;;;7.00;1.02;;;;;;;-142.75;100.00;78076.47;4973707;28;20046;-67
2023/02/03 03:27:13;;;;;;;7.15;1.50;;;;;;;-142.75;100.00;78080.41;4991157;28;20050;-67
2023/02/03 03:29:51;;;;;;;10.73;1.70;;;;;;;-142.75;100.00;78113.88;4975231;28;20018;-68
2023/02/03 03:32:16;;;;;;;10.02;1.40;;;;;;;-142.75;100.00;78113.88;4974041;28;20026;-67
2023/02/03 03:34:42;;;;;;;;;;;;;;;-142.75;100.00;78098.13;4973269;28;20041;-67
2023/02/03 03:37:33;;;;;;;4.15;1.15;;;;;;;-142.75;100.00;78107.97;4981363;28;19959;-66
2023/02/03 03:40:11;;;;;;;8.75;1.20;;;;;;;-142.75;100.00;78129.63;4971906;28;20041;-67
2023/02/03 03:42:47;;;;;;;5.03;1.08;;;;;;;-142.75;100.00;78119.78;4972133;28;20386;-66
2023/02/03 03:45:20;;;;;;;4.57;0.85;;;;;;;-142.75;100.00;78129.63;4971998;28;20494;-67
2023/02/03 03:48:00;;;;;;;10.38;1.30;;;;;;;-142.75;100.00;78133.56;4972147;28;20034;-68
2023/02/03 03:50:33;;;;;;;6.90;1.35;;;;;;;-142.75;100.00;78109.94;4990704;28;20023;-66
2023/02/03 03:53:01;;;;;;;5.63;1.30;;;;;;;-142.75;100.00;78121.75;4991446;28;20478;-67
2023/02/03 03:55:30;;;;;;;7.72;1.38;;;;;;;-142.75;100.00;78127.66;4990081;28;20018;-66
2023/02/03 03:58:02;;;;;;;11.07;1.58;;;;;;;-142.75;100.00;78137.50;4980682;28;20088;-67
2023/02/03 04:00:30;;;;;;;10.07;1.02;;;;;;;-142.75;100.00;78115.84;4991224;28;20076;-66
2023/02/03 04:02:59;;;;;;;9.73;1.20;;;;;;;-142.75;100.00;78137.50;4980378;28;20355;-67
2023/02/03 04:05:25;;;;;;;8.95;1.60;;;;;;;-142.75;100.00;78117.81;4971990;28;20026;-66
2023/02/03 04:07:50;;;;;;;5.63;1.20;;;;;;;-142.75;100.00;78125.69;4975882;28;20022;-67
2023/02/03 04:10:35;;;;;;;;;;;;;;;-142.75;100.00;78107.97;4995085;28;20040;-67
2023/02/03 04:13:02;;;;;;;6.15;0.88;;;;;;;-142.75;100.00;78123.72;4995239;28;19980;-66
2023/02/03 04:15:28;;;;;;;8.77;2.17;;;;;;;-142.75;100.00;78121.75;4994904;28;20053;-66
2023/02/03 04:17:55;;;;;;;;;;;;;;;-142.75;100.00;78127.66;4983620;28;20023;-68
2023/02/03 04:20:21;;;;;;;13.35;1.90;;;;;;;-142.75;100.00;78145.38;4985564;28;19917;-67
2023/02/03 04:22:46;;;;;;;;;;;;;;;-142.75;100.00;78139.47;4990501;28;20026;-67
2023/02/03 04:25:11;;;;;;;6.90;1.52;;;;;;;-142.75;100.00;78133.56;4993669;28;19987;-66
2023/02/03 04:27:37;;;;;;;;;;;;;;;-142.75;100.00;78121.75;4982947;28;20187;-67
2023/02/03 04:30:03;;;;;;;7.97;1.55;;;;;;;-142.75;100.00;78137.50;4991640;28;20373;-67
2023/02/03 04:32:29;;;;;;;12.02;1.77;;;;;;;-142.75;100.00;78137.50;4993358;28;20026;-67
2023/02/03 04:34:55;;;;;;;8.23;1.58;;;;;;;-142.75;100.00;78129.63;4993439;28;20034;-67
2023/02/03 04:37:21;;;;;;;;;;;;;;;-142.75;100.00;78121.75;4991956;28;20498;-67
2023/02/03 04:39:48;;;;;;;2.53;1.00;;;;;;;-142.75;100.00;78143.41;4990095;28;19910;-68
2023/02/03 04:42:14;;;;;;;9.95;2.05;;;;;;;-142.75;100.00;78137.50;4975309;28;20019;-67
2023/02/03 04:44:39;;;;;;;;;;;;;;;-142.75;100.00;78135.53;4975475;28;20035;-67
2023/02/03 04:47:04;;;;;;;5.93;1.35;;;;;;;-142.75;100.00;78145.38;4988762;28;20389;-67
2023/02/03 04:49:29;;;;;;;;;;;;;;;-142.75;100.00;78137.50;4991325;28;20023;-67
2023/02/03 04:51:54;;;;;;;8.30;1.90;;;;;;;-142.75;100.00;78137.50;4986113;28;19910;-68
2023/02/03 04:54:20;;;;;;;;;;;;;;;-142.75;100.00;78133.56;4979236;28;20023;-67
2023/02/03 04:56:45;;;;;;;7.30;1.42;;;;;;;-142.75;100.00;78137.50;4974664;28;20281;-67
2023/02/03 04:59:10;;;;;;;;;;;;;;;-142.75;100.00;78141.44;4975684;28;20042;-67
2023/02/03 05:01:36;;;;;;;9.38;1.80;;;;;;;-142.75;100.00;78137.50;4973679;28;19910;-67
2023/02/03 05:04:01;;;;;;;;;;;;;;;-142.75;100.00;78141.44;4980545;28;20486;-67
2023/02/03 05:06:28;;;;;;;12.10;1.23;;;;;;;-142.75;100.00;78145.38;4975020;28;19960;-67
2023/02/03 05:08:54;;;;;;;6.45;1.50;;;;;;;-142.75;100.00;78149.31;4974867;28;20022;-67
2023/02/03 05:11:20;;;;;;;;;;;;;;;-142.75;100.00;78153.25;4975106;28;20030;-67
2023/02/03 05:13:45;;;;;;;7.10;1.48;;;;;;;-142.75;100.00;78161.13;4990971;28;19918;-67
2023/02/03 05:16:11;;;;;;;;;;;;;;;-142.75;100.00;78133.56;4978756;28;20061;-67
2023/02/03 05:18:36;;;;;;;12.27;1.42;;;;;;;-142.75;100.00;78137.50;4986954;28;19910;-68
2023/02/03 05:21:01;;;;;;;;;;;;;;;-142.75;100.00;78133.56;4974990;28;20022;-67
2023/02/03 05:23:27;;;;;;;12.05;1.65;;;;;;;-142.75;100.00;78141.44;4974505;28;20020;-68
2023/02/03 05:25:52;;;;;;;;;;;;;;;-142.75;100.00;78139.47;4983556;28;20499;-68
2023/02/03 05:28:17;;;;;;;5.18;1.60;;;;;;;-142.75;100.00;78149.31;4978923;28;19917;-66
2023/02/03 05:30:42;;;;;;;;;;;;;;;-142.75;100.00;78143.41;4989694;28;20054;-68
2023/02/03 05:33:08;;;;;;;9.05;1.67;;;;;;;-142.75;100.00;78163.09;4992720;28;20509;-67
2023/02/03 05:35:33;;;;;;;;;;;;;;;-142.75;100.00;78157.19;4985894;28;20109;-67
2023/02/03 05:37:58;;;;;;;5.93;1.40;;;;;;;-142.75;100.00;78151.28;4992441;28;19909;-68
2023/02/03 05:43:08;;;;;;;8.18;0.90;;;;;;;-142.75;100.00;78155.22;4993485;28;20388;-67
2023/02/03 05:45:33;;;;;;;;;;;;;;;-142.75;100.00;78145.38;4988952;28;20026;-67
2023/02/03 05:48:01;;;;;;;7.85;1.20;;;;;;;-142.75;100.00;78161.13;4991765;28;20558;-67
2023/02/03 05:50:29;;;;;;;12.35;1.27;;;;;;;-142.75;100.00;78165.06;4984134;28;20116;-67
2023/02/03 05:52:54;;;;;;;10.87;1.57;;;;;;;-142.75;100.00;78159.16;4981368;28;20027;-67
2023/02/03 05:55:19;;;;;;;;;;;;;;;-142.75;100.00;78157.19;4976963;28;20080;-66
2023/02/03 05:57:45;;;;;;;8.80;1.30;;;;;;;-142.75;100.00;78165.06;4975549;28;19941;-67
2023/02/03 06:00:10;;;;;;;;;;;;;;;-142.75;100.00;78165.06;4974189;28;20080;-67
2023/02/03 06:02:35;;;;;;;13.60;1.83;;;;;;;-142.75;100.00;78165.06;4986421;28;19917;-68
2023/02/03 06:05:01;;;;;;;;;;;;;;;-142.75;100.00;78143.41;4982357;28;20031;-67
2023/02/03 06:07:26;;;;;;;7.27;1.67;;;;;;;-142.75;100.00;78161.13;4987435;28;19917;-67
2023/02/03 06:09:51;;;;;;;;;;;;;;;-142.75;100.00;78161.13;4993588;28;20026;-67
2023/02/03 06:12:16;;;;;;;10.90;1.83;;;;;;;-142.75;100.00;78163.09;4977068;28;20008;-68
2023/02/03 06:14:42;;;;;;;;;;;;;;;-142.75;100.00;78145.38;4991898;28;20417;-67
2023/02/03 06:17:07;;;;;;;8.25;1.50;;;;;;;-142.75;100.00;78147.34;4992996;28;19913;-66
2023/02/03 06:19:32;;;;;;;;;;;;;;;-142.75;100.00;78137.50;4990557;28;20026;-67
2023/02/03 06:21:58;;;;;;;8.02;1.63;;;;;;;-142.75;100.00;78129.63;4992841;28;19909;-68
2023/02/03 06:24:23;;;;;;;;;;;;;;;-142.75;100.00;78131.59;4991754;28;20114;-67
2023/02/03 06:26:48;;;;;;;8.63;1.50;;;;;;;-142.75;100.00;78137.50;4985642;28;19910;-68
2023/02/03 06:29:13;;;;;;;;;;;;;;;-142.75;100.00;78121.75;4973648;28;20030;-67
2023/02/03 06:31:39;;;;;;;9.35;1.65;;;;;;;-142.75;100.00;78141.44;4974519;28;20000;-67
2023/02/03 06:34:04;;;;;;;;;;;;;;;-142.75;100.00;78145.38;4974470;28;20026;-67
2023/02/03 06:36:29;;;;;;;8.55;1.42;;;;;;;-142.75;100.00;78161.13;4977859;28;19924;-67
2023/02/03 06:38:54;;;;;;;;;;;;;;;-142.75;100.00;78165.06;4976199;28;20065;-68
2023/02/03 06:41:26;;;;;;;6.05;1.38;;;;;;;-142.75;100.00;78180.81;4991100;28;19922;-66
2023/02/03 06:43:51;;;;;;;7.30;1.95;;;;;;;-142.75;100.00;78188.72;4991765;28;20710;-67
2023/02/03 06:46:16;;;;;;;;;;;;;;;-142.75;100.00;78161.13;4991695;28;20113;-67
2023/02/03 06:48:42;;;;;;;7.18;1.23;;;;;;;-142.75;100.00;78165.06;4982300;28;19910;-67
2023/02/03 06:51:07;;;;;;;;;;;;;;;-142.75;100.00;78172.94;4991094;28;20045;-67
2023/02/03 06:53:32;;;;;;;6.83;1.70;;;;;;;-142.75;100.00;78176.88;4992196;28;19910;-67
2023/02/03 06:55:57;;;;;;;;;;;;;;;-142.75;100.00;78172.94;4978924;28;20098;-67
2023/02/03 06:58:23;;;;;;;11.50;1.43;;;;;;;-142.75;100.00;78182.81;4989758;28;20388;-67
2023/02/03 07:00:48;;;;;;;;;;;;;;;-142.75;100.00;78180.81;4975209;28;20504;-67
2023/02/03 07:03:13;;;;;;;4.70;1.00;;;;;;;-142.75;100.00;78196.59;4989277;28;19929;-67
2023/02/03 07:05:39;;;;;;;;;;;;;;;-142.75;100.00;78176.88;4992288;28;20397;-67
2023/02/03 07:08:05;;;;;;;12.18;1.48;;;;;;;-142.75;100.00;78186.75;4975617;28;20428;-68
2023/02/03 07:10:30;;;;;;;;;;;;;;;-142.75;100.00;78196.59;4973026;28;20027;-67
2023/02/03 07:13:01;;;;;;;14.43;1.88;;;;;;;-142.75;100.00;78188.72;4973881;28;19917;-67
2023/02/03 07:15:27;;;;;;;12.13;2.10;;;;;;;-142.75;100.00;78176.88;4991356;28;20022;-67
2023/02/03 07:17:53;;;;;;;;;;;;;;;-142.75;100.00;78178.84;4992302;28;20033;-67
2023/02/03 07:20:19;;;;;;;11.98;1.50;;;;;;;-142.75;100.00;78176.88;4991743;28;19916;-67
2023/02/03 07:22:50;;;;;;;13.57;2.53;;;;;;;-142.75;100.00;78188.72;4991297;28;20390;-67
2023/02/03 07:25:16;;;;;;;13.52;1.35;;;;;;;-142.75;100.00;78196.59;4992690;28;20046;-67
2023/02/03 07:27:42;;;;;;;;;;;;;;;-142.75;100.00;78188.72;4994468;28;20022;-67
2023/02/03 07:30:08;;;;;;;6.63;1.00;;;;;;;-142.75;100.00;78192.66;4980243;28;20392;-67
2023/02/03 07:32:34;;;;;;;8.18;1.30;;;;;;;-142.75;100.00;78176.88;4982742;28;20039;-67
2023/02/03 07:35:02;;;;;;;;;;;;;;;-142.75;100.00;78180.81;4981951;28;20035;-66
2023/02/03 07:37:27;;;;;;;6.10;1.17;;;;;;;-142.75;100.00;78176.88;4977671;28;19921;-67
2023/02/03 07:39:53;;;;;;;;;;;;;;;-142.75;100.00;78167.03;4976199;28;20026;-67
2023/02/03 07:42:18;;;;;;;6.90;1.55;;;;;;;-142.75;100.00;78178.84;4990587;28;19916;-67
2023/02/03 07:44:43;;;;;;;;;;;;;;;-142.75;100.00;78170.97;4990447;28;20046;-67
2023/02/03 07:47:08;;;;;;;7.22;1.40;;;;;;;-142.75;100.00;78159.16;4991357;28;20423;-67
2023/02/03 07:49:34;;;;;;;;;;;;;;;-142.75;100.00;78161.13;4991368;28;20022;-68
2023/02/03 07:51:59;;;;;;;6.38;1.27;;;;;;;-142.75;100.00;78172.94;4991177;28;19902;-67
2023/02/03 07:54:24;;;;;;;;;;;;;;;-142.75;100.00;78170.97;4993402;28;20022;-67
2023/02/03 07:56:50;;;;;;;6.47;1.55;;;;;;;-142.75;100.00;78163.09;4991288;28;19913;-67
2023/02/03 07:59:15;;;;;;;;;;;;;;;-142.75;100.00;78161.13;4977004;28;20019;-68
2023/02/03 08:01:41;;;;;;;7.13;1.73;;;;;;;-142.75;100.00;78178.84;4991390;28;20308;-67
2023/02/03 08:04:07;;;;;;;;;;;;;;;-142.75;100.00;78161.13;4991306;28;20026;-67
2023/02/03 08:06:33;;;;;;;9.50;1.30;;;;;;;-142.75;100.00;78176.88;4985259;28;20004;-67
2023/02/03 08:08:58;;;;;;;;;;;;;;;-142.75;100.00;78172.94;4988639;28;20113;-68
2023/02/03 08:11:23;;;;;;;9.65;1.50;;;;;;;-142.75;100.00;78169.00;4971716;28;19917;-67
2023/02/03 08:13:48;;;;;;;;;;;;;;;-142.75;100.00;78157.19;4981360;28;20497;-68
2023/02/03 08:16:14;;;;;;;5.60;1.30;;;;;;;-142.75;100.00;78178.84;4987990;28;19925;-68
2023/02/03 08:18:39;;;;;;;;;;;;;;;-142.75;100.00;78153.25;4976421;28;20082;-67
2023/02/03 08:21:05;;;;;;;7.18;1.38;;;;;;;-142.75;100.00;78174.91;4972854;28;19968;-68
2023/02/03 08:23:30;;;;;;;;;;;;;;;-142.75;100.00;78174.91;4970990;28;20023;-68
2023/02/03 08:25:55;;;;;;;9.07;1.42;;;;;;;-142.75;100.00;78161.13;4989017;28;19921;-68
2023/02/03 08:28:20;;;;;;;;;;;;;;;-142.75;100.00;78165.06;4983355;28;20026;-67
2023/02/03 08:30:46;;;;;;;12.02;1.40;;;;;;;-142.75;100.00;78172.94;4982258;28;19909;-68
2023/02/03 08:33:11;;;;;;;;;;;;;;;-142.75;100.00;78163.09;4991319;28;20034;-66
2023/02/03 08:35:37;;;;;;;8.32;1.20;;;;;;;-142.75;100.00;78170.97;4978196;28;19910;-66
2023/02/03 08:38:03;;;;;;;10.07;1.70;;;;;;;-142.75;100.00;78163.09;4981334;28;20022;-68
2023/02/03 08:40:28;;;;;;;;;;;;;;;-142.75;100.00;78153.25;4988933;28;20080;-68
2023/02/03 08:42:53;;;;;;;11.20;1.40;;;;;;;-142.75;100.00;78157.19;4986340;28;19959;-68
2023/02/03 08:45:18;;;;;;;;;;;;;;;-142.75;100.00;78153.25;4981979;28;20118;-68
2023/02/03 08:47:44;;;;;;;14.15;1.27;;;;;;;-142.75;100.00;78145.38;4976877;28;19922;-68
2023/02/03 08:50:10;;;;;;;;;;;;;;;-142.75;100.00;78143.41;4971143;28;20034;-68
2023/02/03 08:52:35;;;;;;;7.70;1.30;;;;;;;-142.75;100.00;78155.22;4980057;28;19913;-68
2023/02/03 08:55:00;;;;;;;;;;;;;;;-142.75;100.00;78155.22;4975749;28;20533;-68
2023/02/03 08:57:26;;;;;;;10.00;1.55;;;;;;;-142.75;100.00;78170.97;4983076;28;19914;-68
2023/02/03 08:59:51;;;;;;;;;;;;;;;-142.75;100.00;78151.28;4975544;28;20033;-68
2023/02/03 09:02:18;;;;;;;9.90;1.23;;;;;;;-142.75;100.00;78153.25;4977619;28;19917;-68
2023/02/03 09:04:45;;;;;;;8.13;1.27;;;;;;;-142.75;100.00;78157.19;4973148;28;20089;-68
2023/02/03 09:07:12;;;;;;;8.38;1.77;;;;;;;-142.75;100.00;78159.16;4979414;28;20061;-67
2023/02/03 09:09:37;;;;;;;7.15;1.40;;;;;;;-142.75;100.00;78153.25;4985768;28;20014;-67
2023/02/03 09:12:04;;;;;;;;;;;;;;;-142.75;100.00;78149.31;4993724;28;20470;-68
2023/02/03 09:14:34;;;;;;;9.25;1.65;;;;;;;-142.75;100.00;78153.25;4993042;28;20357;-68
2023/02/03 09:17:00;;;;;;;10.07;1.80;;;;;;;-142.75;100.00;78151.28;4994509;28;20037;-66
2023/02/03 09:19:26;;;;;;;5.10;1.17;;;;;;;-142.75;100.00;78139.47;4980176;28;20018;-68
2023/02/03 09:21:51;;;;;;;;;;;;;;;-142.75;100.00;78165.06;4976334;28;20444;-68
2023/02/03 09:24:17;;;;;;;12.60;1.60;;;;;;;-142.75;100.00;78161.13;4991556;28;20427;-68
2023/02/03 09:26:43;;;;;;;12.70;1.33;;;;;;;-142.75;100.00;78172.94;4992410;28;20029;-68
2023/02/03 09:29:08;;;;;;;;;;;;;;;-142.75;100.00;78167.03;4982979;28;20026;-69
2023/02/03 09:31:33;;;;;;;4.45;1.08;;;;;;;-142.75;100.00;78161.13;4991809;28;19921;-67
2023/02/03 09:33:59;;;;;;;;;;;;;;;-142.75;100.00;78157.19;4993872;28;20029;-67
2023/02/03 09:36:24;;;;;;;7.10;1.40;;;;;;;-142.75;100.00;78163.09;4993569;28;20377;-66
2023/02/03 09:38:50;;;;;;;;;;;;;;;-142.75;100.00;78163.09;4993514;28;20041;-67
2023/02/03 09:41:29;;;;;;;7.03;1.25;;;;;;;-142.75;100.00;78161.13;4991346;28;19920;-68
2023/02/03 09:44:07;;;;;;;8.77;1.85;;;;;;;-142.75;100.00;78165.06;4991972;28;20029;-67
2023/02/03 09:46:46;;;;;;;9.68;1.17;;;;;;;-142.75;100.00;78157.19;4983828;28;20478;-68
2023/02/03 09:49:24;;;;;;;7.38;1.10;;;;;;;-142.75;100.00;78143.41;4974077;28;20038;-70
2023/02/03 09:51:58;;;;;;;7.63;1.02;;;;;;;-142.75;100.00;78127.66;4993460;28;20081;-67
2023/02/03 09:54:59;;;;;;;7.35;1.00;;;;;;;-142.75;100.00;78117.81;4981227;28;20022;-67
2023/02/03 09:57:28;;;;;;;6.20;1.27;;;;;;;-142.75;100.00;78102.06;4973987;28;20049;-66
2023/02/03 09:59:57;;;;;;;9.55;1.48;;;;;;;-142.75;100.00;78117.81;4983807;28;20542;-66
2023/02/03 10:02:22;;;;;;;4.90;1.40;;;;;;;-142.75;100.00;78125.69;4992065;28;20022;-67
2023/02/03 10:04:50;;;;;;;;;;;;;;;-142.75;100.00;78109.94;4991273;28;20068;-67
2023/02/03 10:07:32;;;;;;;3.33;0.90;;;;;;;-142.75;100.00;78109.94;4993189;28;19921;-66
2023/02/03 10:10:08;;;;;;;6.43;1.15;;;;;;;-142.75;100.00;78109.94;4993009;28;20026;-66
2023/02/03 10:12:53;;;;;;;7.20;1.30;;;;;;;-142.75;100.00;78113.88;4993146;28;20105;-66
2023/02/03 10:15:40;;;;;;;5.72;1.05;;;;;;;-142.75;100.00;78119.78;4992865;28;20025;-68
2023/02/03 10:18:11;;;;;;;8.48;1.27;;;;;;;-142.75;100.00;78115.84;4991596;28;20022;-67
2023/02/03 10:20:49;;;;;;;10.90;1.60;;;;;;;-142.75;100.00;78109.94;4987523;28;20497;-66
2023/02/03 10:23:36;;;;;;;8.55;0.98;;;;;;;-142.75;100.00;78066.63;4986227;28;20034;-67
2023/02/03 10:26:06;;;;;;;7.72;1.27;;;;;;;-142.75;100.00;78074.50;4978856;28;20026;-67
2023/02/03 10:28:38;;;;;;;9.30;0.90;;;;;;;-142.75;100.00;78058.72;4973393;28;20561;-68
2023/02/03 10:31:15;;;;;;;5.60;1.48;;;;;;;-142.75;100.00;78046.91;4991340;28;20018;-66
2023/02/03 10:33:40;;;;;;;8.27;0.80;;;;;;;-142.75;100.00;78044.94;4992638;28;20117;-66
2023/02/03 10:36:11;;;;;;;;;;;;;;;-142.75;100.00;78027.22;4978053;28;20435;-68
2023/02/03 10:38:46;;;;;;;4.88;1.02;;;;;;;-142.75;100.00;78041.00;4988299;28;19916;-67
2023/02/03 10:41:11;;;;;;;8.43;0.98;;;;;;;-142.75;100.00;78037.06;4981846;28;20033;-66
2023/02/03 10:43:46;;;;;;;;;;;;;;;-142.75;100.00;78039.03;4982239;28;20035;-66
2023/02/03 10:46:12;;;;;;;6.57;1.23;;;;;;;-142.75;100.00;78054.81;4983523;28;19918;-66
2023/02/03 10:48:37;;;;;;;;;;;;;;;-142.75;100.00;78033.13;4980157;28;20041;-68
2023/02/03 10:51:02;;;;;;;4.70;1.10;;;;;;;-142.75;100.00;78054.81;4983036;28;19910;-66
2023/02/03 10:53:35;;;;;;;;;;;;;;;-142.75;100.00;78066.63;4979221;28;20487;-66
2023/02/03 10:56:09;;;;;;;12.27;1.90;;;;;;;-142.75;100.00;78062.69;4973554;28;20297;-67
2023/02/03 10:58:36;;;;;;;6.00;1.13;;;;;;;-142.75;100.00;78074.50;4974228;28;20023;-68
2023/02/03 11:01:14;;;;;;;4.88;0.95;;;;;;;-142.75;100.00;78068.59;4975477;28;20031;-67
2023/02/03 11:03:52;;;;;;;10.02;1.33;;;;;;;-142.75;100.00;78066.63;4972633;28;20105;-67
2023/02/03 11:06:18;;;;;;;5.45;1.15;;;;;;;-142.75;100.00;78102.06;4991884;28;20015;-69
2023/02/03 11:08:44;;;;;;;;;;;;;;;-142.75;100.00;78100.09;4991615;28;20478;-68
2023/02/03 11:11:25;;;;;;;5.82;1.10;;;;;;;-142.75;100.00;78074.50;4990474;28;19916;-69
2023/02/03 11:14:02;;;;;;;6.68;1.30;;;;;;;-142.75;100.00;78058.72;4991276;28;20049;-66
2023/02/03 11:16:31;;;;;;;5.82;1.52;;;;;;;-142.75;100.00;78072.53;4991173;28;20054;-68
2023/02/03 11:19:16;;;;;;;8.25;1.23;;;;;;;-142.75;100.00;78064.66;4989777;28;20026;-67
2023/02/03 11:21:45;;;;;;;4.47;0.95;;;;;;;-142.75;100.00;78058.72;4991347;28;20026;-70
2023/02/03 11:24:21;;;;;;;6.78;1.60;;;;;;;-142.75;100.00;78076.47;4976903;28;20050;-68
2023/02/03 11:26:48;;;;;;;;;;;;;;;-142.75;100.00;78042.97;4987653;28;20018;-66
2023/02/03 11:29:27;;;;;;;3.80;1.27;;;;;;;-142.75;100.00;78058.72;4981178;28;19909;-68
2023/02/03 11:31:54;;;;;;;8.43;1.33;;;;;;;-142.75;100.00;78066.63;4973561;28;20352;-68
2023/02/03 11:34:25;;;;;;;5.22;1.10;;;;;;;-142.75;100.00;78086.31;4981134;28;20513;-69
2023/02/03 11:36:50;;;;;;;6.05;1.13;;;;;;;-142.75;100.00;78106.00;4982525;28;20019;-68
2023/02/03 11:39:26;;;;;;;;;;;;;;;-142.75;100.00;78090.25;4981049;28;20098;-66